Lock Haven, PA

7:26 PM EDT on September 26, 2016 (GMT -0400)
NonFedAWOS | | Change Station

Elev 556 ft 41.14 °N, 77.42 °W | Updated 46 minutes ago

Overcast
Overcast
64 °F
Feels Like 64 °F
N
6
Wind Variable Wind from South
Gusts 0.0 mph

Today
High -- | Low -- °F
--% Chance of Precip.
Yesterday
High -- | Low -- °F
Precip. -- in
Pressure 29.97 in
Visibility 2.5 miles
Clouds Overcast 1100 ft
Dew Point 57 °F
Humidity 77%
Rainfall in
Snow Depth Not available.
7:01 AM 6:59 PM
Waning Crescent, 15% visible
METAR KIPT 262254Z 06008KT 030V090 2 1/2SM BR OVC011 17/16 A2997 RMK AO2 SLP148 T01670156
Pressure 29.97 in
Visibility 2.5 miles
Clouds Overcast 1100 ft
Dew Point 57 °F
Humidity 77%
Rainfall in
Snow Depth Not available.
7:01 AM 6:59 PM
Waning Crescent, 15% visible
METAR KIPT 262254Z 06008KT 030V090 2 1/2SM BR OVC011 17/16 A2997 RMK AO2 SLP148 T01670156

10-Day Weather Forecast

Almanac

Astronomy

Sep. 26, 2016 Rise Set
Actual Time
Civil Twilight
Nautical Twilight
Astronomical Twilight
Moon
Length of Visible Light
Length of Day
Tomorrow will be .
, % of the Moon is Illuminated

Today's Extremes

State Highs State Lows

Community

WunderPhotos

Upload Photos

1,941,987 photos uploaded!

WunderBlog® & News

Nearby

Air Quality

  Air Quality AQ Index Pollutant
Not available.

Snow Depth

Station Depth Elevation

Earthquake Activity

City Distance Mag. Time & Date
Minimum magnitude displayed is 2.5.

Coastal Water Temperatures

Place Temperature

Stations

Nearby Weather Stations

Station Location Temp. Windchill Dew Point Humidity Wind Precip. Elev Updated Type
                   

Watches & Warnings

There are currently no watches in effect.